createdAt,value
2023-07-08T00:00:49.233Z,59.00
2023-07-08T00:03:19.023Z,58.10
2023-07-08T00:05:48.107Z,57.80
2023-07-08T00:08:16.570Z,57.90
2023-07-08T00:10:43.948Z,58.00
2023-07-08T00:13:12.019Z,58.50
2023-07-08T00:15:40.920Z,58.30
2023-07-08T00:18:14.599Z,58.40
2023-07-08T00:20:47.987Z,58.70
2023-07-08T00:23:23.163Z,59.30
2023-07-08T00:25:51.168Z,60.00
2023-07-08T00:28:22.735Z,61.50
2023-07-08T00:30:50.995Z,62.00
2023-07-08T00:33:18.389Z,62.70
2023-07-08T00:35:47.330Z,63.20
2023-07-08T00:38:29.201Z,62.40
2023-07-08T00:41:18.006Z,63.20
2023-07-08T00:43:53.632Z,63.10
2023-07-08T00:46:39.708Z,63.00
2023-07-08T00:49:19.381Z,63.40
2023-07-08T00:51:47.097Z,64.90
2023-07-08T00:54:15.544Z,65.30
2023-07-08T00:56:59.324Z,63.30
2023-07-08T00:59:35.729Z,62.00
2023-07-08T01:02:08.857Z,61.80
2023-07-08T01:04:45.356Z,62.40
2023-07-08T01:07:13.207Z,62.70
2023-07-08T01:09:44.219Z,63.30
2023-07-08T01:12:18.693Z,64.40
2023-07-08T01:14:49.547Z,65.80
2023-07-08T01:17:19.841Z,65.90
2023-07-08T01:19:50.360Z,65.80
2023-07-08T01:22:18.687Z,64.80
2023-07-08T01:24:54.987Z,64.70
2023-07-08T01:27:22.958Z,64.40
2023-07-08T01:29:52.212Z,64.30
2023-07-08T01:32:20.414Z,63.30
2023-07-08T01:35:03.244Z,63.10
2023-07-08T01:37:43.847Z,63.80
2023-07-08T01:40:20.207Z,65.30
2023-07-08T01:42:47.515Z,66.30
2023-07-08T01:45:16.987Z,67.20
2023-07-08T01:47:50.666Z,67.10
2023-07-08T01:50:19.664Z,67.30
2023-07-08T01:52:49.427Z,66.10
2023-07-08T01:55:21.904Z,65.50
2023-07-08T01:57:49.161Z,66.00
2023-07-08T02:00:16.644Z,66.20
2023-07-08T02:02:44.375Z,66.00
2023-07-08T02:07:39.354Z,66.60
2023-07-08T02:10:07.248Z,66.50
2023-07-08T02:12:34.825Z,66.50
2023-07-08T02:15:02.809Z,66.80
2023-07-08T02:17:30.370Z,67.60
2023-07-08T02:19:57.943Z,68.20
2023-07-08T02:22:25.217Z,68.20
2023-07-08T02:24:52.477Z,68.30
2023-07-08T02:27:20.797Z,68.30
2023-07-08T02:29:48.351Z,68.10
2023-07-08T02:32:15.589Z,68.20
2023-07-08T02:34:43.831Z,68.80
2023-07-08T02:37:14.380Z,68.30
2023-07-08T02:39:41.948Z,66.90
2023-07-08T02:42:10.547Z,67.10
2023-07-08T02:44:38.528Z,67.00
2023-07-08T02:47:08.307Z,67.60
2023-07-08T02:49:36.639Z,67.90
2023-07-08T02:52:04.341Z,68.10
2023-07-08T02:54:31.619Z,68.40
2023-07-08T02:56:59.005Z,68.50
2023-07-08T02:59:28.799Z,68.30
2023-07-08T03:01:56.275Z,68.80
2023-07-08T03:04:26.257Z,69.30
2023-07-08T03:06:55.906Z,69.60
2023-07-08T03:09:24.503Z,69.40
2023-07-08T03:11:51.796Z,69.60
2023-07-08T03:14:19.117Z,70.00
2023-07-08T03:16:46.443Z,70.70
2023-07-08T03:19:16.206Z,71.20
2023-07-08T03:21:44.080Z,70.90
2023-07-08T03:24:13.751Z,69.50
2023-07-08T03:26:46.427Z,68.80
2023-07-08T03:29:19.051Z,68.90
2023-07-08T03:31:48.160Z,69.40
2023-07-08T03:34:17.623Z,69.50
2023-07-08T03:36:49.734Z,70.30
2023-07-08T03:39:23.138Z,70.70
2023-07-08T03:41:51.549Z,71.60
2023-07-08T03:44:20.260Z,71.90
2023-07-08T03:46:50.584Z,70.90
2023-07-08T03:49:23.116Z,70.40
2023-07-08T03:51:54.650Z,70.20
2023-07-08T03:54:25.692Z,70.50
2023-07-08T03:56:55.880Z,70.80
2023-07-08T03:59:25.655Z,71.10
2023-07-08T04:01:55.006Z,71.40
2023-07-08T04:04:22.980Z,71.60
2023-07-08T04:06:51.374Z,71.20
2023-07-08T04:09:18.612Z,71.10
2023-07-08T04:11:45.916Z,70.90
2023-07-08T04:14:13.243Z,70.80
2023-07-08T04:16:46.738Z,70.90
2023-07-08T04:19:15.899Z,71.60
2023-07-08T04:21:45.260Z,71.20
2023-07-08T04:24:14.822Z,71.60
2023-07-08T04:26:42.653Z,71.30
2023-07-08T04:29:17.303Z,71.10
2023-07-08T04:31:45.064Z,71.30
2023-07-08T04:34:12.340Z,71.30
2023-07-08T04:36:39.659Z,71.10
2023-07-08T04:39:08.155Z,71.20
2023-07-08T04:41:42.034Z,71.70
2023-07-08T04:44:13.113Z,71.70
2023-07-08T04:46:52.310Z,72.20
2023-07-08T04:49:20.177Z,72.00
2023-07-08T04:51:47.888Z,72.10
2023-07-08T04:54:15.563Z,71.80
2023-07-08T04:56:48.078Z,71.80
2023-07-08T04:59:20.351Z,71.80
2023-07-08T05:01:49.926Z,72.40
2023-07-08T05:04:20.203Z,73.00
2023-07-08T05:06:48.043Z,73.30
2023-07-08T05:09:17.359Z,72.90
2023-07-08T05:11:45.532Z,72.60
2023-07-08T05:14:13.867Z,71.90
2023-07-08T05:16:41.694Z,71.50
2023-07-08T05:19:09.763Z,70.90
2023-07-08T05:21:37.133Z,70.50
2023-07-08T05:24:06.037Z,70.10
2023-07-08T05:26:34.196Z,69.30
2023-07-08T05:29:01.939Z,69.00
2023-07-08T05:31:45.452Z,68.20
2023-07-08T05:34:16.637Z,67.70
2023-07-08T05:36:44.622Z,67.40
2023-07-08T05:39:11.992Z,67.20
2023-07-08T05:41:39.436Z,67.10
2023-07-08T05:44:06.716Z,67.00
2023-07-08T05:46:34.004Z,66.10
2023-07-08T05:49:02.202Z,64.90
2023-07-08T05:51:29.812Z,63.80
2023-07-08T05:53:57.123Z,62.70
2023-07-08T05:56:24.396Z,62.00
2023-07-08T05:58:51.673Z,61.30
2023-07-08T06:01:19.127Z,60.90
2023-07-08T06:03:46.496Z,60.90
2023-07-08T06:06:13.903Z,60.30
2023-07-08T06:08:42.600Z,59.60
2023-07-08T06:11:09.849Z,58.40
2023-07-08T06:13:37.208Z,59.00
2023-07-08T06:16:05.091Z,59.10
2023-07-08T06:18:32.520Z,59.00
2023-07-08T06:21:00.277Z,58.90
2023-07-08T06:23:27.968Z,58.40
2023-07-08T06:25:55.682Z,57.40
2023-07-08T06:28:23.367Z,56.00
2023-07-08T06:30:51.057Z,56.20
2023-07-08T06:33:18.435Z,55.10
2023-07-08T06:35:45.807Z,55.00
2023-07-08T06:38:13.945Z,54.40
2023-07-08T06:40:41.344Z,54.00
2023-07-08T06:43:08.681Z,54.30
2023-07-08T06:45:42.116Z,54.20
2023-07-08T06:48:09.516Z,55.30
2023-07-08T06:50:37.044Z,54.20
2023-07-08T06:53:04.316Z,55.10
2023-07-08T06:55:31.646Z,55.10
2023-07-08T06:57:58.977Z,53.30
2023-07-08T07:00:26.416Z,53.60
2023-07-08T07:02:53.769Z,53.20
2023-07-08T07:05:23.413Z,52.50
2023-07-08T07:07:51.289Z,53.10
2023-07-08T07:10:18.544Z,53.20
2023-07-08T07:12:46.192Z,51.60
2023-07-08T07:15:13.523Z,51.90
2023-07-08T07:17:40.938Z,52.60
2023-07-08T07:20:09.538Z,52.80
2023-07-08T07:22:37.013Z,52.00
2023-07-08T07:25:05.226Z,51.70
2023-07-08T07:27:32.567Z,52.40
2023-07-08T07:30:00.701Z,51.00
2023-07-08T07:32:30.355Z,51.20
2023-07-08T07:34:58.716Z,50.70
2023-07-08T07:37:26.538Z,51.40
2023-07-08T07:39:53.688Z,51.00
2023-07-08T07:42:21.311Z,50.80
2023-07-08T07:44:48.679Z,51.30
2023-07-08T07:47:16.035Z,49.60
2023-07-08T07:49:43.501Z,51.10
2023-07-08T07:52:12.140Z,50.90
2023-07-08T07:54:40.549Z,50.80
2023-07-08T07:57:07.853Z,48.50
2023-07-08T07:59:35.141Z,48.90
2023-07-08T08:02:02.585Z,48.20
2023-07-08T08:04:29.891Z,49.40
2023-07-08T08:06:57.197Z,48.50
2023-07-08T08:09:24.453Z,46.20
2023-07-08T08:11:53.042Z,46.90
2023-07-08T08:14:20.345Z,47.00
2023-07-08T08:16:47.749Z,46.50
2023-07-08T08:19:15.132Z,45.90
2023-07-08T08:21:42.544Z,47.50
2023-07-08T08:24:09.815Z,46.90
2023-07-08T08:26:37.238Z,46.10
2023-07-08T08:29:04.512Z,44.40
2023-07-08T08:31:35.009Z,43.80
2023-07-08T08:34:02.318Z,43.50
2023-07-08T08:36:29.629Z,42.20
2023-07-08T08:38:58.080Z,43.50
2023-07-08T08:41:33.599Z,44.90
2023-07-08T08:44:03.473Z,45.20
2023-07-08T08:46:51.367Z,44.70
2023-07-08T08:49:44.714Z,45.30
2023-07-08T08:52:12.036Z,42.10
2023-07-08T08:54:40.007Z,43.30
2023-07-08T08:57:29.657Z,44.20
2023-07-08T09:00:00.068Z,44.50
2023-07-08T09:02:54.614Z,45.40
2023-07-08T09:05:22.081Z,44.20
2023-07-08T09:08:04.856Z,44.30
2023-07-08T09:10:47.502Z,44.60
2023-07-08T09:13:38.297Z,44.10
2023-07-08T09:16:20.409Z,43.80
2023-07-08T09:19:00.698Z,45.50
2023-07-08T09:21:34.830Z,42.50
2023-07-08T09:24:09.582Z,41.70
2023-07-08T09:26:37.356Z,42.90
2023-07-08T09:29:09.951Z,38.90
2023-07-08T09:31:40.616Z,41.60
2023-07-08T09:34:14.623Z,40.70
2023-07-08T09:36:44.097Z,41.70
2023-07-08T09:39:17.988Z,42.00
2023-07-08T09:41:47.997Z,40.10
2023-07-08T09:44:31.164Z,40.70
2023-07-08T09:46:59.725Z,40.30
2023-07-08T09:49:35.588Z,41.50
2023-07-08T09:52:05.507Z,39.70
2023-07-08T09:54:33.893Z,38.40
2023-07-08T09:57:12.930Z,41.10
2023-07-08T09:59:48.647Z,41.50
2023-07-08T10:02:53.412Z,40.00
2023-07-08T10:05:23.406Z,41.20
2023-07-08T10:07:55.651Z,39.00
2023-07-08T10:10:40.422Z,39.60
2023-07-08T10:13:22.626Z,38.10
2023-07-08T10:16:26.691Z,38.50
2023-07-08T10:18:54.064Z,40.60
2023-07-08T10:21:41.535Z,36.30
2023-07-08T10:24:43.030Z,39.90
2023-07-08T10:27:26.919Z,36.60
2023-07-08T10:30:05.755Z,36.50
2023-07-08T10:32:54.446Z,35.90
2023-07-08T10:35:41.768Z,37.90
2023-07-08T10:38:31.160Z,37.50
2023-07-08T10:41:06.145Z,36.60
2023-07-08T10:43:59.858Z,35.20
2023-07-08T10:46:49.473Z,36.30
2023-07-08T10:49:28.889Z,35.40
2023-07-08T10:52:32.155Z,35.50
2023-07-08T10:55:22.046Z,34.20
2023-07-08T10:58:43.192Z,34.10
2023-07-08T11:01:34.413Z,33.10
2023-07-08T11:04:19.106Z,30.10
2023-07-08T11:06:55.963Z,31.10
2023-07-08T11:09:37.584Z,32.50
2023-07-08T11:12:18.768Z,31.80
2023-07-08T11:14:57.784Z,35.80
2023-07-08T11:17:38.840Z,32.50
2023-07-08T11:20:24.320Z,33.60
2023-07-08T11:22:59.275Z,31.80
2023-07-08T11:25:28.744Z,32.30
2023-07-08T11:27:58.768Z,31.60
2023-07-08T11:30:30.678Z,30.30
2023-07-08T11:33:05.548Z,31.00
2023-07-08T11:35:52.110Z,31.40
2023-07-08T11:38:21.914Z,30.20
2023-07-08T11:40:56.333Z,31.50
2023-07-08T11:43:27.365Z,29.50
2023-07-08T11:45:58.467Z,30.50
2023-07-08T11:48:32.896Z,29.60
2023-07-08T11:51:06.583Z,29.90
2023-07-08T11:53:48.715Z,30.00
2023-07-08T11:56:24.907Z,28.70
2023-07-08T11:59:21.091Z,29.60
2023-07-08T12:01:51.774Z,29.50
2023-07-08T12:04:27.097Z,28.90
2023-07-08T12:07:12.228Z,28.50
2023-07-08T12:09:48.363Z,30.10
2023-07-08T12:12:25.667Z,26.40
2023-07-08T12:15:03.200Z,26.90
2023-07-08T12:17:31.968Z,26.40
2023-07-08T12:20:04.725Z,29.80
2023-07-08T12:22:34.165Z,27.70
2023-07-08T12:25:06.686Z,28.50
2023-07-08T12:27:34.197Z,26.30
2023-07-08T12:30:03.924Z,27.30
2023-07-08T12:32:31.658Z,28.80
2023-07-08T12:34:59.537Z,24.40
2023-07-08T12:37:27.437Z,26.70
2023-07-08T12:39:56.452Z,30.20
2023-07-08T12:42:24.277Z,25.80
2023-07-08T12:44:52.252Z,25.20
2023-07-08T12:47:21.942Z,24.90
2023-07-08T12:49:50.342Z,25.20
2023-07-08T12:52:25.108Z,22.60
2023-07-08T12:54:52.977Z,25.00
2023-07-08T12:57:20.692Z,26.90
2023-07-08T12:59:48.549Z,27.00
2023-07-08T13:02:18.572Z,24.50
2023-07-08T13:04:48.343Z,23.40
2023-07-08T13:07:39.492Z,21.10
2023-07-08T13:10:10.152Z,26.30
2023-07-08T13:12:41.580Z,27.00
2023-07-08T13:15:18.814Z,25.90
2023-07-08T13:17:46.711Z,24.20
2023-07-08T13:20:18.981Z,23.60
2023-07-08T13:22:53.178Z,22.40
2023-07-08T13:25:27.498Z,24.60
2023-07-08T13:28:04.246Z,25.00
2023-07-08T13:30:33.002Z,22.90
2023-07-08T13:33:01.346Z,20.20
2023-07-08T13:35:40.052Z,20.00
2023-07-08T13:38:15.562Z,21.10
2023-07-08T13:40:48.706Z,22.50
2023-07-08T13:43:17.005Z,21.40
2023-07-08T13:45:49.095Z,23.90
2023-07-08T13:48:50.746Z,22.30
2023-07-08T13:51:21.669Z,18.60
2023-07-08T13:53:52.289Z,18.40
2023-07-08T13:56:28.505Z,20.80
2023-07-08T13:59:08.822Z,17.20
2023-07-08T14:01:39.600Z,17.20
2023-07-08T14:04:08.358Z,18.80
2023-07-08T14:06:39.945Z,16.90
2023-07-08T14:09:27.520Z,18.30
2023-07-08T14:11:55.743Z,18.10
2023-07-08T14:14:23.313Z,18.00
2023-07-08T14:16:54.103Z,17.30
2023-07-08T14:19:28.333Z,17.30
2023-07-08T14:21:58.493Z,18.30
2023-07-08T14:24:26.577Z,16.80
2023-07-08T14:26:55.031Z,17.40
2023-07-08T14:29:23.264Z,16.90
2023-07-08T14:31:51.132Z,19.10
2023-07-08T14:34:25.601Z,18.30
2023-07-08T14:36:53.773Z,17.10
2023-07-08T14:39:22.268Z,17.80
2023-07-08T14:41:51.306Z,17.80
2023-07-08T14:44:31.921Z,17.10
2023-07-08T14:46:59.685Z,17.70
2023-07-08T14:49:28.589Z,17.00
2023-07-08T14:51:56.161Z,16.40
2023-07-08T14:54:23.840Z,16.10
2023-07-08T14:56:51.645Z,15.20
2023-07-08T14:59:22.135Z,15.00
2023-07-08T15:01:49.922Z,15.30
2023-07-08T15:04:19.146Z,15.80
2023-07-08T15:06:47.589Z,15.90
2023-07-08T15:09:15.264Z,17.90
2023-07-08T15:11:43.593Z,15.30
2023-07-08T15:14:27.438Z,15.70
2023-07-08T15:16:55.517Z,14.90
2023-07-08T15:19:24.905Z,13.60
2023-07-08T15:21:52.836Z,15.70
2023-07-08T15:24:20.292Z,14.50
2023-07-08T15:26:48.568Z,15.00
2023-07-08T15:29:24.518Z,15.10
2023-07-08T15:31:52.435Z,15.00
2023-07-08T15:34:22.455Z,14.40
2023-07-08T15:36:50.981Z,14.20
2023-07-08T15:39:18.549Z,13.80
2023-07-08T15:41:46.143Z,14.70
2023-07-08T15:44:15.352Z,16.10
2023-07-08T15:46:49.916Z,14.30
2023-07-08T15:49:20.272Z,13.60
2023-07-08T15:51:50.119Z,13.80
2023-07-08T15:54:21.072Z,12.40
2023-07-08T15:56:52.241Z,13.80
2023-07-08T15:59:25.087Z,12.30
2023-07-08T16:01:53.369Z,13.10
2023-07-08T16:04:27.544Z,14.20
2023-07-08T16:06:55.515Z,15.90
2023-07-08T16:09:23.648Z,14.30
2023-07-08T16:11:52.129Z,14.80
2023-07-08T16:14:20.357Z,13.80
2023-07-08T16:16:48.469Z,14.30
2023-07-08T16:19:16.428Z,14.70
2023-07-08T16:21:44.268Z,14.70
2023-07-08T16:24:12.254Z,14.40
2023-07-08T16:26:40.762Z,14.00
2023-07-08T16:29:16.398Z,13.90
2023-07-08T16:31:43.928Z,13.50
2023-07-08T16:34:12.054Z,15.50
2023-07-08T16:36:39.957Z,14.30
2023-07-08T16:39:08.113Z,14.70
2023-07-08T16:41:37.424Z,13.20
2023-07-08T16:44:17.952Z,13.60
2023-07-08T16:46:45.966Z,13.70
2023-07-08T16:49:13.993Z,14.10
2023-07-08T16:51:41.905Z,13.50
2023-07-08T16:54:11.779Z,13.10
2023-07-08T16:56:41.171Z,14.40
2023-07-08T16:59:09.271Z,13.80
2023-07-08T17:01:37.037Z,14.20
2023-07-08T17:04:04.933Z,13.70
2023-07-08T17:06:32.868Z,14.70
2023-07-08T17:09:05.781Z,14.80
2023-07-08T17:11:33.636Z,14.00
2023-07-08T17:14:01.989Z,14.20
2023-07-08T17:16:34.148Z,14.70
2023-07-08T17:19:02.850Z,13.60
2023-07-08T17:21:30.359Z,14.90
2023-07-08T17:23:57.825Z,15.10
2023-07-08T17:26:25.114Z,14.80
2023-07-08T17:28:52.473Z,14.10
2023-07-08T17:33:58.181Z,14.40
2023-07-08T17:36:36.098Z,16.40
2023-07-08T17:39:07.906Z,18.30
2023-07-08T17:41:35.365Z,19.40
2023-07-08T17:44:02.721Z,19.40
2023-07-08T17:46:30.802Z,20.40
2023-07-08T17:49:00.074Z,22.20
2023-07-08T17:51:32.421Z,23.40
2023-07-08T17:53:59.832Z,22.60
2023-07-08T17:56:36.725Z,23.50
2023-07-08T17:59:05.428Z,24.10
2023-07-08T18:01:33.141Z,24.70
2023-07-08T18:04:00.586Z,24.70
2023-07-08T18:06:27.969Z,25.00
2023-07-08T18:08:55.273Z,25.40
2023-07-08T18:11:24.574Z,25.70
2023-07-08T18:13:52.999Z,25.80
2023-07-08T18:16:23.743Z,28.20
2023-07-08T18:18:51.947Z,28.60
2023-07-08T18:21:22.491Z,29.00
2023-07-08T18:23:52.922Z,28.70
2023-07-08T18:26:23.482Z,28.90
2023-07-08T18:28:51.624Z,29.30
2023-07-08T18:31:24.051Z,32.10
2023-07-08T18:33:51.867Z,31.80
2023-07-08T18:36:19.441Z,31.50
2023-07-08T18:38:47.321Z,32.40
2023-07-08T18:41:21.732Z,32.70
2023-07-08T18:43:50.236Z,32.20
2023-07-08T18:46:18.500Z,32.20
2023-07-08T18:48:46.048Z,31.40
2023-07-08T18:51:35.325Z,30.60
2023-07-08T18:54:03.056Z,33.60
2023-07-08T18:56:30.735Z,34.20
2023-07-08T18:58:58.618Z,35.40
2023-07-08T19:01:26.430Z,35.40
2023-07-08T19:03:54.816Z,36.60
2023-07-08T19:06:23.292Z,38.10
2023-07-08T19:08:50.702Z,37.10
2023-07-08T19:11:19.426Z,37.30
2023-07-08T19:13:47.286Z,36.90
2023-07-08T19:16:15.977Z,34.50
2023-07-08T19:18:44.666Z,34.00
2023-07-08T19:21:15.291Z,35.10
2023-07-08T19:23:46.675Z,35.00
2023-07-08T19:26:19.767Z,35.00
2023-07-08T19:28:47.304Z,37.10
2023-07-08T19:31:33.098Z,36.70
2023-07-08T19:34:06.450Z,38.00
2023-07-08T19:36:34.444Z,36.90
2023-07-08T19:39:02.319Z,38.90
2023-07-08T19:41:33.779Z,37.20
2023-07-08T19:44:10.109Z,37.40
2023-07-08T19:46:38.604Z,38.60
2023-07-08T19:49:05.941Z,39.90
2023-07-08T19:51:33.200Z,39.80
2023-07-08T19:54:00.577Z,42.60
2023-07-08T19:56:30.237Z,42.60
2023-07-08T19:58:57.811Z,41.60
2023-07-08T20:01:25.193Z,44.40
2023-07-08T20:03:52.760Z,43.60
2023-07-08T20:06:27.256Z,43.20
2023-07-08T20:08:56.187Z,43.70
2023-07-08T20:11:23.785Z,44.20
2023-07-08T20:13:51.540Z,44.70
2023-07-08T20:16:27.397Z,45.10
2023-07-08T20:18:57.508Z,43.30
2023-07-08T20:21:26.582Z,40.80
2023-07-08T20:23:54.865Z,40.30
2023-07-08T20:26:32.738Z,41.20
2023-07-08T20:29:00.522Z,42.00
2023-07-08T20:31:31.697Z,42.80
2023-07-08T20:33:59.814Z,43.10
2023-07-08T20:36:28.428Z,45.90
2023-07-08T20:38:55.882Z,45.60
2023-07-08T20:41:23.531Z,44.90
2023-07-08T20:43:51.523Z,46.00
2023-07-08T20:46:25.263Z,46.50
2023-07-08T20:48:55.888Z,45.90
2023-07-08T20:51:25.211Z,46.70
2023-07-08T20:53:56.634Z,47.20
2023-07-08T20:56:32.603Z,46.50
2023-07-08T20:59:04.406Z,46.40
2023-07-08T21:01:33.499Z,47.30
2023-07-08T21:04:04.331Z,46.70
2023-07-08T21:06:33.748Z,46.40
2023-07-08T21:09:03.348Z,47.90
2023-07-08T21:11:31.865Z,46.70
2023-07-08T21:14:03.854Z,48.10
2023-07-08T21:16:32.325Z,48.30
2023-07-08T21:19:01.520Z,47.30
2023-07-08T21:21:29.220Z,47.50
2023-07-08T21:23:56.649Z,48.50
2023-07-08T21:26:28.723Z,48.90
2023-07-08T21:29:02.765Z,47.70
2023-07-08T21:31:31.986Z,45.20
2023-07-08T21:34:02.306Z,45.90
2023-07-08T21:36:35.032Z,47.20
2023-07-08T21:39:35.875Z,48.80
2023-07-08T21:42:05.367Z,49.30
2023-07-08T21:44:34.268Z,48.10
2023-07-08T21:47:01.936Z,48.80
2023-07-08T21:49:30.356Z,48.20
2023-07-08T21:51:58.467Z,46.30
2023-07-08T21:54:26.673Z,46.60
2023-07-08T21:56:54.140Z,45.90
2023-07-08T21:59:27.512Z,46.80
2023-07-08T22:01:56.812Z,47.70
2023-07-08T22:04:25.549Z,48.00
2023-07-08T22:06:53.697Z,48.20
2023-07-08T22:09:21.452Z,48.60
2023-07-08T22:11:50.448Z,49.20
2023-07-08T22:14:20.159Z,48.40
2023-07-08T22:17:01.290Z,47.50
2023-07-08T22:19:34.119Z,47.60
2023-07-08T22:22:02.407Z,49.10
2023-07-08T22:24:33.987Z,49.00
2023-07-08T22:27:01.692Z,48.70
2023-07-08T22:29:29.603Z,49.00
2023-07-08T22:31:58.030Z,49.40
2023-07-08T22:34:25.658Z,50.00
2023-07-08T22:36:52.988Z,50.10
2023-07-08T22:39:20.524Z,49.80
2023-07-08T22:41:53.569Z,49.80
2023-07-08T22:44:23.553Z,50.60
2023-07-08T22:46:51.019Z,50.60
2023-07-08T22:49:25.558Z,51.50
2023-07-08T22:51:56.808Z,50.50
2023-07-08T22:54:26.495Z,50.50
2023-07-08T22:56:55.612Z,51.00
2023-07-08T22:59:24.571Z,51.10
2023-07-08T23:01:52.183Z,50.40
2023-07-08T23:04:19.466Z,49.90
2023-07-08T23:06:47.896Z,51.20
2023-07-08T23:09:18.817Z,51.50
2023-07-08T23:11:46.279Z,50.80
2023-07-08T23:14:14.023Z,50.50
2023-07-08T23:16:41.385Z,50.10
2023-07-08T23:19:12.508Z,48.90
2023-07-08T23:21:40.664Z,49.60
2023-07-08T23:24:09.142Z,49.00
2023-07-08T23:26:38.325Z,51.00
2023-07-08T23:29:07.127Z,49.40
2023-07-08T23:31:37.262Z,49.40
2023-07-08T23:34:07.435Z,49.10
2023-07-08T23:36:40.196Z,49.80
2023-07-08T23:39:21.667Z,49.50
2023-07-08T23:41:52.153Z,48.30
2023-07-08T23:44:21.792Z,49.00
2023-07-08T23:46:56.464Z,48.70
2023-07-08T23:49:26.628Z,48.90
2023-07-08T23:51:56.150Z,50.30
2023-07-08T23:54:35.185Z,49.80
2023-07-08T23:57:08.092Z,50.30
2023-07-08T23:59:40.501Z,49.60
